createdAt,value
2023-03-08T00:01:16.531Z,9.32
2023-03-08T00:03:43.714Z,8.13
2023-03-08T00:06:15.657Z,9.20
2023-03-08T00:08:43.078Z,8.55
2023-03-08T00:11:12.326Z,8.43
2023-03-08T00:13:39.844Z,8.85
2023-03-08T00:16:09.023Z,9.98
2023-03-08T00:18:36.250Z,7.68
2023-03-08T00:21:09.427Z,11.13
2023-03-08T00:23:35.974Z,8.60
2023-03-08T00:26:03.203Z,9.65
2023-03-08T00:28:30.141Z,8.60
2023-03-08T00:31:00.270Z,8.25
2023-03-08T00:33:27.699Z,10.32
2023-03-08T00:35:56.488Z,9.60
2023-03-08T00:38:23.196Z,8.35
2023-03-08T00:40:49.720Z,9.20
2023-03-08T00:43:16.189Z,8.95
2023-03-08T00:45:42.936Z,9.38
2023-03-08T00:48:09.604Z,9.30
2023-03-08T00:50:36.142Z,6.75
2023-03-08T00:53:03.052Z,8.05
2023-03-08T00:55:29.721Z,8.27
2023-03-08T00:57:56.223Z,9.00
2023-03-08T01:00:23.842Z,7.47
2023-03-08T01:02:50.909Z,7.55
2023-03-08T01:05:17.571Z,9.32
2023-03-08T01:07:44.117Z,8.43
2023-03-08T01:10:11.264Z,10.65
2023-03-08T01:12:38.389Z,9.52
2023-03-08T01:15:06.124Z,8.75
2023-03-08T01:17:33.436Z,9.38
2023-03-08T01:19:59.942Z,8.13
2023-03-08T01:22:26.419Z,12.73
2023-03-08T01:24:54.341Z,10.98
2023-03-08T01:27:20.850Z,10.40
2023-03-08T01:29:47.342Z,11.02
2023-03-08T01:32:13.907Z,9.23
2023-03-08T01:34:40.391Z,12.57
2023-03-08T01:37:06.955Z,14.30
2023-03-08T01:39:33.494Z,12.38
2023-03-08T01:42:07.147Z,14.02
2023-03-08T01:45:28.034Z,13.57
2023-03-08T01:47:54.579Z,14.43
2023-03-08T01:50:26.082Z,15.50
2023-03-08T01:52:55.091Z,13.32
2023-03-08T01:55:22.253Z,14.40
2023-03-08T01:57:53.984Z,10.82
2023-03-08T02:05:30.798Z,8.23
2023-03-08T02:08:04.420Z,12.80
2023-03-08T02:10:35.568Z,14.25
2023-03-08T02:13:04.390Z,13.93
2023-03-08T02:15:31.282Z,14.05
2023-03-08T02:17:58.037Z,15.88
2023-03-08T02:20:30.675Z,16.50
2023-03-08T02:23:09.020Z,17.60
2023-03-08T02:25:35.467Z,15.30
2023-03-08T02:28:03.441Z,13.80
2023-03-08T02:30:33.439Z,15.02
2023-03-08T02:32:59.972Z,11.98
2023-03-08T02:35:28.938Z,14.63
2023-03-08T02:37:55.794Z,16.65
2023-03-08T02:40:22.337Z,13.15
2023-03-08T02:42:48.985Z,12.07
2023-03-08T02:45:15.923Z,14.05
2023-03-08T02:47:42.458Z,13.70
2023-03-08T02:50:09.793Z,14.55
2023-03-08T02:52:36.275Z,13.40
2023-03-08T02:55:03.491Z,14.98
2023-03-08T02:57:30.365Z,14.82
2023-03-08T02:59:56.907Z,14.70
2023-03-08T03:02:25.855Z,16.33
2023-03-08T03:04:52.348Z,16.55
2023-03-08T03:07:19.073Z,14.48
2023-03-08T03:09:45.639Z,14.13
2023-03-08T03:12:13.305Z,17.40
2023-03-08T03:14:41.902Z,14.25
2023-03-08T03:17:08.472Z,13.02
2023-03-08T03:19:34.977Z,16.30
2023-03-08T03:22:01.616Z,15.73
2023-03-08T03:24:29.179Z,15.88
2023-03-08T03:26:58.078Z,13.75
2023-03-08T03:29:27.493Z,15.88
2023-03-08T03:32:03.847Z,14.27
2023-03-08T03:34:31.015Z,11.32
2023-03-08T03:36:57.597Z,11.45
2023-03-08T03:39:24.122Z,10.30
2023-03-08T03:41:51.529Z,13.45
2023-03-08T03:44:18.794Z,13.65
2023-03-08T03:46:47.660Z,11.25
2023-03-08T03:49:17.500Z,12.05
2023-03-08T03:51:46.230Z,12.50
2023-03-08T03:54:31.210Z,14.73
2023-03-08T03:57:00.276Z,14.88
2023-03-08T04:01:57.300Z,11.90
2023-03-08T04:04:32.267Z,10.70
2023-03-08T04:06:59.070Z,14.57
2023-03-08T04:09:30.008Z,12.23
2023-03-08T04:12:07.424Z,14.27
2023-03-08T04:14:35.793Z,12.38
2023-03-08T04:17:03.354Z,13.10
2023-03-08T04:19:37.617Z,13.70
2023-03-08T04:22:05.163Z,12.45
2023-03-08T04:24:38.432Z,13.23
2023-03-08T04:27:10.048Z,12.00
2023-03-08T04:29:36.914Z,13.23
2023-03-08T04:32:04.090Z,10.50
2023-03-08T04:34:39.626Z,14.88
2023-03-08T04:37:07.381Z,14.95
2023-03-08T04:39:34.081Z,12.95
2023-03-08T04:42:00.617Z,13.20
2023-03-08T04:44:30.503Z,13.27
2023-03-08T04:46:57.320Z,11.45
2023-03-08T04:49:34.475Z,10.60
2023-03-08T04:52:02.757Z,10.85
2023-03-08T04:54:30.228Z,14.68
2023-03-08T04:57:02.203Z,15.27
2023-03-08T04:59:30.191Z,13.07
2023-03-08T05:01:59.518Z,15.00
2023-03-08T05:04:26.911Z,14.27
2023-03-08T05:06:53.345Z,13.48
2023-03-08T05:09:24.107Z,13.05
2023-03-08T05:11:52.294Z,12.55
2023-03-08T05:14:18.889Z,11.70
2023-03-08T05:16:45.448Z,15.27
2023-03-08T05:19:12.307Z,13.35
2023-03-08T05:21:46.130Z,10.80
2023-03-08T05:24:13.708Z,12.13
2023-03-08T05:26:40.396Z,11.75
2023-03-08T05:29:08.435Z,11.18
2023-03-08T05:31:37.730Z,11.02
2023-03-08T05:34:06.131Z,16.65
2023-03-08T05:36:36.615Z,12.32
2023-03-08T05:39:06.838Z,9.75
2023-03-08T05:41:43.056Z,11.35
2023-03-08T05:44:10.642Z,12.13
2023-03-08T05:46:39.249Z,11.05
2023-03-08T05:49:07.463Z,9.73
2023-03-08T05:51:35.693Z,11.80
2023-03-08T05:54:02.461Z,12.55
2023-03-08T05:56:31.394Z,15.40
2023-03-08T05:59:06.780Z,11.27
2023-03-08T06:01:33.291Z,14.73
2023-03-08T06:04:09.534Z,11.70
2023-03-08T06:06:39.572Z,13.43
2023-03-08T06:09:06.279Z,11.90
2023-03-08T06:11:35.163Z,9.68
2023-03-08T06:14:02.469Z,13.85
2023-03-08T06:16:31.322Z,12.98
2023-03-08T06:18:58.100Z,13.02
2023-03-08T06:21:25.778Z,13.13
2023-03-08T06:23:58.638Z,12.93
2023-03-08T06:26:25.139Z,12.30
2023-03-08T06:28:52.131Z,14.02
2023-03-08T06:31:19.669Z,12.57
2023-03-08T06:33:46.631Z,12.55
2023-03-08T06:36:20.852Z,13.50
2023-03-08T06:38:49.477Z,12.38
2023-03-08T06:41:19.184Z,14.23
2023-03-08T06:43:49.422Z,12.23
2023-03-08T06:46:17.697Z,12.85
2023-03-08T06:48:45.386Z,11.10
2023-03-08T06:51:12.528Z,12.88
2023-03-08T06:53:43.042Z,13.03
2023-03-08T06:56:13.161Z,27.70
2023-03-08T06:58:40.239Z,11.82
2023-03-08T07:01:09.593Z,12.75
2023-03-08T07:03:36.684Z,15.70
2023-03-08T07:06:05.897Z,14.75
2023-03-08T07:08:32.827Z,23.98
2023-03-08T07:10:59.950Z,15.68
2023-03-08T07:13:26.857Z,13.57
2023-03-08T07:15:53.490Z,18.15
2023-03-08T07:18:20.373Z,13.43
2023-03-08T07:20:52.654Z,55.58
2023-03-08T07:23:19.250Z,13.18
2023-03-08T07:25:45.771Z,17.25
2023-03-08T07:28:12.358Z,15.07
2023-03-08T07:30:38.864Z,42.95
2023-03-08T07:33:05.388Z,114.35
2023-03-08T07:35:31.932Z,47.90
2023-03-08T07:37:58.401Z,11.38
2023-03-08T07:40:24.944Z,12.85
2023-03-08T07:42:51.429Z,12.02
2023-03-08T07:45:39.726Z,12.50
2023-03-08T07:48:06.779Z,14.23
2023-03-08T07:50:33.456Z,15.52
2023-03-08T07:53:00.153Z,10.30
2023-03-08T07:55:27.517Z,10.85
2023-03-08T07:57:54.060Z,13.55
2023-03-08T08:00:20.912Z,12.52
2023-03-08T08:02:48.092Z,11.43
2023-03-08T08:05:14.813Z,10.88
2023-03-08T08:07:41.315Z,12.60
2023-03-08T08:10:08.333Z,12.20
2023-03-08T08:12:34.905Z,12.23
2023-03-08T08:15:01.360Z,13.25
2023-03-08T08:17:27.852Z,12.20
2023-03-08T08:19:54.328Z,10.38
2023-03-08T08:22:20.813Z,12.02
2023-03-08T08:24:47.347Z,13.73
2023-03-08T08:27:15.272Z,13.40
2023-03-08T08:29:44.060Z,14.23
2023-03-08T08:32:10.496Z,12.35
2023-03-08T08:34:36.920Z,13.05
2023-03-08T08:37:04.092Z,14.05
2023-03-08T08:39:30.577Z,15.02
2023-03-08T08:41:57.131Z,13.55
2023-03-08T08:44:23.599Z,11.88
2023-03-08T08:46:50.134Z,12.93
2023-03-08T08:49:16.620Z,12.15
2023-03-08T08:51:43.370Z,13.90
2023-03-08T08:54:09.940Z,14.98
2023-03-08T08:56:42.556Z,13.10
2023-03-08T08:59:11.681Z,12.32
2023-03-08T09:01:43.491Z,15.48
2023-03-08T09:04:12.251Z,15.13
2023-03-08T09:06:39.881Z,17.90
2023-03-08T09:09:06.758Z,13.02
2023-03-08T09:11:37.776Z,14.68
2023-03-08T09:14:12.116Z,20.20
2023-03-08T09:16:38.706Z,17.27
2023-03-08T09:19:06.022Z,16.35
2023-03-08T09:21:34.156Z,15.90
2023-03-08T09:24:02.806Z,16.90
2023-03-08T09:26:33.677Z,19.40
2023-03-08T09:29:04.996Z,18.92
2023-03-08T09:31:33.382Z,17.42
2023-03-08T09:34:00.243Z,18.33
2023-03-08T09:36:28.714Z,22.40
2023-03-08T09:38:56.172Z,19.38
2023-03-08T09:41:45.314Z,20.38
2023-03-08T09:44:48.932Z,20.92
2023-03-08T09:47:30.257Z,19.52
2023-03-08T09:50:17.077Z,19.20
2023-03-08T09:53:00.181Z,19.63
2023-03-08T09:55:43.842Z,21.58
2023-03-08T09:58:45.726Z,15.63
2023-03-08T10:01:38.057Z,19.52
2023-03-08T10:04:27.833Z,17.77
2023-03-08T10:06:54.263Z,17.13
2023-03-08T10:09:36.951Z,18.92
2023-03-08T10:12:17.171Z,15.98
2023-03-08T10:14:50.255Z,17.63
2023-03-08T10:17:21.957Z,15.80
2023-03-08T10:22:42.368Z,14.02
2023-03-08T10:25:18.959Z,10.68
2023-03-08T10:27:48.171Z,8.32
2023-03-08T10:30:17.227Z,8.07
2023-03-08T10:32:46.819Z,8.45
2023-03-08T10:35:13.712Z,7.13
2023-03-08T10:37:40.351Z,5.90
2023-03-08T10:40:10.721Z,4.78
2023-03-08T10:42:37.460Z,6.53
2023-03-08T10:45:15.417Z,8.27
2023-03-08T10:47:41.954Z,4.72
2023-03-08T10:50:08.417Z,5.35
2023-03-08T10:52:35.345Z,5.07
2023-03-08T10:55:38.072Z,4.65
2023-03-08T10:58:06.300Z,5.15
2023-03-08T11:00:38.306Z,3.95
2023-03-08T11:03:13.883Z,4.63
2023-03-08T11:05:54.592Z,2.45
2023-03-08T11:08:33.252Z,4.07
2023-03-08T11:11:11.661Z,2.80
2023-03-08T11:13:41.831Z,2.78
2023-03-08T11:16:08.522Z,2.10
2023-03-08T11:19:18.200Z,2.40
2023-03-08T11:21:56.175Z,2.00
2023-03-08T11:24:39.693Z,2.15
2023-03-08T11:27:16.878Z,1.55
2023-03-08T11:29:46.006Z,1.88
2023-03-08T11:32:20.010Z,3.15
2023-03-08T11:35:08.115Z,1.30
2023-03-08T11:37:44.037Z,2.00
2023-03-08T11:40:25.496Z,2.35
2023-03-08T11:43:50.637Z,1.42
2023-03-08T11:46:55.874Z,3.65
2023-03-08T11:49:40.716Z,4.13
2023-03-08T11:52:21.910Z,1.60
2023-03-08T11:54:56.908Z,2.50
2023-03-08T11:57:29.916Z,1.85
2023-03-08T12:00:09.743Z,2.97
2023-03-08T12:02:45.487Z,3.60
2023-03-08T12:05:28.078Z,1.77
2023-03-08T12:08:25.436Z,2.67
2023-03-08T12:10:56.741Z,1.93
2023-03-08T12:13:23.124Z,2.92
2023-03-08T12:16:25.162Z,3.47
2023-03-08T12:19:16.210Z,3.15
2023-03-08T12:22:21.536Z,1.33
2023-03-08T12:24:54.236Z,1.42
2023-03-08T12:27:51.953Z,1.88
2023-03-08T12:30:42.843Z,1.35
2023-03-08T12:33:13.735Z,1.47
2023-03-08T12:35:58.824Z,2.33
2023-03-08T12:38:37.660Z,3.58
2023-03-08T12:41:09.564Z,3.53
2023-03-08T12:43:36.321Z,2.35
2023-03-08T12:46:04.991Z,2.13
2023-03-08T12:48:32.454Z,2.05
2023-03-08T12:51:01.440Z,1.95
2023-03-08T12:53:36.554Z,1.10
2023-03-08T12:56:09.092Z,1.45
2023-03-08T12:58:56.992Z,2.05
2023-03-08T13:01:29.727Z,7.15
2023-03-08T13:03:56.892Z,3.25
2023-03-08T13:06:23.343Z,2.28
2023-03-08T13:08:55.745Z,0.95
2023-03-08T13:11:25.534Z,1.70
2023-03-08T13:13:57.609Z,1.23
2023-03-08T13:16:38.647Z,0.52
2023-03-08T13:19:14.672Z,2.00
2023-03-08T13:21:56.389Z,1.42
2023-03-08T13:24:42.840Z,1.48
2023-03-08T13:27:44.820Z,2.42
2023-03-08T13:30:32.369Z,2.20
2023-03-08T13:32:59.965Z,0.85
2023-03-08T13:35:27.087Z,1.70
2023-03-08T13:37:56.855Z,1.33
2023-03-08T13:40:23.809Z,1.55
2023-03-08T13:42:59.129Z,0.85
2023-03-08T13:45:26.652Z,1.88
2023-03-08T13:47:55.491Z,2.13
2023-03-08T13:50:30.190Z,1.88
2023-03-08T13:52:57.462Z,2.10
2023-03-08T13:55:51.320Z,1.98
2023-03-08T13:58:31.463Z,1.83
2023-03-08T14:01:03.513Z,1.25
2023-03-08T14:03:31.934Z,2.13
2023-03-08T14:05:58.925Z,1.30
2023-03-08T14:08:27.549Z,2.30
2023-03-08T14:10:59.587Z,1.10
2023-03-08T14:13:35.839Z,1.38
2023-03-08T14:16:05.465Z,2.67
2023-03-08T14:18:43.562Z,1.30
2023-03-08T14:21:25.422Z,1.40
2023-03-08T14:26:31.553Z,1.23
2023-03-08T14:29:21.620Z,1.02
2023-03-08T14:31:54.108Z,4.68
2023-03-08T14:34:29.036Z,2.05
2023-03-08T14:36:59.203Z,1.35
2023-03-08T14:39:28.194Z,1.25
2023-03-08T14:41:55.773Z,0.70
2023-03-08T14:44:28.179Z,2.80
2023-03-08T14:46:58.662Z,2.33
2023-03-08T14:49:28.170Z,1.60
2023-03-08T14:51:55.422Z,4.45
2023-03-08T14:54:33.080Z,3.65
2023-03-08T14:57:13.793Z,1.90
2023-03-08T14:59:41.393Z,2.22
2023-03-08T15:02:12.872Z,1.60
2023-03-08T15:04:40.283Z,1.73
2023-03-08T15:07:07.688Z,2.35
2023-03-08T15:09:34.919Z,1.48
2023-03-08T15:12:01.738Z,1.08
2023-03-08T15:14:30.435Z,3.63
2023-03-08T15:16:58.156Z,1.02
2023-03-08T15:19:24.918Z,2.00
2023-03-08T15:21:51.490Z,0.75
2023-03-08T15:24:19.027Z,1.17
2023-03-08T15:26:46.023Z,0.85
2023-03-08T15:29:27.610Z,0.98
2023-03-08T15:31:54.309Z,0.55
2023-03-08T15:34:21.472Z,0.55
2023-03-08T15:36:52.704Z,0.70
2023-03-08T15:39:19.908Z,0.70
2023-03-08T15:41:47.659Z,2.65
2023-03-08T15:44:14.110Z,1.23
2023-03-08T15:46:40.640Z,1.63
2023-03-08T15:49:07.217Z,1.17
2023-03-08T15:51:35.946Z,1.52
2023-03-08T15:54:04.767Z,2.22
2023-03-08T15:56:31.458Z,1.00
2023-03-08T15:58:57.993Z,1.77
2023-03-08T16:01:26.556Z,0.98
2023-03-08T16:03:54.523Z,1.75
2023-03-08T16:06:21.938Z,1.77
2023-03-08T16:08:48.449Z,2.03
2023-03-08T16:11:17.199Z,1.50
2023-03-08T16:13:43.777Z,1.45
2023-03-08T16:16:10.296Z,1.75
2023-03-08T16:18:40.285Z,1.17
2023-03-08T16:21:10.744Z,2.17
2023-03-08T16:23:39.006Z,1.27
2023-03-08T16:26:15.835Z,1.65
2023-03-08T16:28:44.945Z,1.95
2023-03-08T16:31:12.157Z,2.25
2023-03-08T16:33:39.629Z,2.92
2023-03-08T16:36:06.419Z,1.10
2023-03-08T16:38:32.919Z,3.03
2023-03-08T16:41:12.215Z,2.15
2023-03-08T16:43:46.828Z,5.43
2023-03-08T16:46:15.722Z,3.83
2023-03-08T16:48:42.186Z,1.38
2023-03-08T16:51:14.262Z,1.35
2023-03-08T16:53:40.958Z,2.33
2023-03-08T16:56:07.844Z,1.23
2023-03-08T16:58:34.403Z,1.52
2023-03-08T17:01:00.859Z,1.38
2023-03-08T17:03:27.372Z,5.00
2023-03-08T17:05:53.947Z,3.13
2023-03-08T17:08:20.415Z,2.05
2023-03-08T17:10:46.872Z,3.80
2023-03-08T17:13:13.374Z,2.33
2023-03-08T17:15:41.828Z,2.75
2023-03-08T17:18:09.657Z,2.72
2023-03-08T17:20:43.264Z,2.72
2023-03-08T17:23:11.052Z,2.13
2023-03-08T17:25:41.041Z,3.40
2023-03-08T17:28:09.563Z,2.67
2023-03-08T17:30:39.418Z,3.67
2023-03-08T17:33:05.916Z,1.92
2023-03-08T17:35:32.737Z,3.60
2023-03-08T17:37:59.307Z,2.50
2023-03-08T17:40:25.778Z,3.35
2023-03-08T17:42:52.282Z,1.73
2023-03-08T17:45:18.844Z,3.45
2023-03-08T17:47:45.698Z,2.03
2023-03-08T17:50:13.375Z,1.35
2023-03-08T17:52:41.115Z,1.75
2023-03-08T17:55:08.390Z,1.77
2023-03-08T17:57:36.476Z,3.13
2023-03-08T18:00:05.535Z,1.45
2023-03-08T18:02:33.123Z,2.00
2023-03-08T18:04:59.806Z,0.90
2023-03-08T18:07:27.691Z,1.48
2023-03-08T18:09:54.226Z,1.10
2023-03-08T18:12:20.753Z,2.83
2023-03-08T18:14:50.390Z,1.65
2023-03-08T18:17:16.857Z,0.95
2023-03-08T18:19:43.471Z,1.45
2023-03-08T18:22:09.995Z,1.98
2023-03-08T18:24:36.608Z,1.83
2023-03-08T18:27:05.425Z,1.83
2023-03-08T18:29:33.996Z,2.58
2023-03-08T18:32:00.783Z,1.88
2023-03-08T18:34:28.089Z,1.92
2023-03-08T18:36:55.485Z,0.93
2023-03-08T18:39:21.945Z,2.03
2023-03-08T18:41:48.449Z,1.88
2023-03-08T18:44:14.907Z,1.08
2023-03-08T18:46:41.476Z,0.95
2023-03-08T18:49:11.513Z,2.60
2023-03-08T18:51:40.093Z,1.25
2023-03-08T18:54:09.134Z,1.83
2023-03-08T18:56:35.915Z,1.30
2023-03-08T18:59:04.774Z,2.33
2023-03-08T19:01:31.957Z,1.95
2023-03-08T19:04:00.277Z,2.15
2023-03-08T19:06:27.577Z,1.05
2023-03-08T19:08:54.202Z,1.83
2023-03-08T19:11:23.582Z,1.35
2023-03-08T19:13:50.411Z,3.83
2023-03-08T19:16:18.223Z,0.70
2023-03-08T19:18:45.337Z,3.05
2023-03-08T19:21:21.319Z,2.05
2023-03-08T19:23:48.179Z,3.58
2023-03-08T19:26:37.467Z,2.03
2023-03-08T19:29:20.695Z,2.90
2023-03-08T19:31:50.384Z,1.67
2023-03-08T19:34:17.582Z,3.42
2023-03-08T19:36:46.129Z,2.92
2023-03-08T19:39:15.223Z,4.13
2023-03-08T19:41:42.402Z,2.95
2023-03-08T19:44:09.098Z,4.07
2023-03-08T19:46:37.987Z,4.70
2023-03-08T19:49:06.160Z,4.22
2023-03-08T19:51:33.448Z,1.98
2023-03-08T19:53:59.907Z,4.15
2023-03-08T19:56:26.818Z,4.20
2023-03-08T19:58:57.265Z,5.65
2023-03-08T20:01:24.056Z,7.03
2023-03-08T20:03:50.752Z,4.22
2023-03-08T20:06:25.533Z,2.58
2023-03-08T20:08:53.001Z,4.03
2023-03-08T20:11:20.545Z,3.65
2023-03-08T20:13:47.117Z,2.95
2023-03-08T20:16:13.717Z,1.42
2023-03-08T20:18:40.484Z,1.73
2023-03-08T20:21:07.087Z,0.77
2023-03-08T20:23:33.806Z,2.00
2023-03-08T20:26:00.880Z,4.07
2023-03-08T20:28:27.766Z,1.98
2023-03-08T20:30:54.805Z,2.58
2023-03-08T20:33:21.781Z,1.77
2023-03-08T20:36:01.035Z,2.95
2023-03-08T20:38:28.004Z,5.07
2023-03-08T20:41:03.444Z,3.38
2023-03-08T20:43:30.889Z,2.38
2023-03-08T20:45:57.896Z,1.40
2023-03-08T20:48:24.501Z,8.30
2023-03-08T20:50:58.337Z,4.57
2023-03-08T20:53:24.865Z,1.33
2023-03-08T20:55:51.355Z,16.58
2023-03-08T20:58:17.850Z,7.38
2023-03-08T21:00:44.396Z,2.20
2023-03-08T21:03:10.951Z,3.22
2023-03-08T21:05:37.442Z,4.65
2023-03-08T21:08:04.388Z,4.15
2023-03-08T21:10:36.403Z,2.08
2023-03-08T21:13:03.600Z,2.40
2023-03-08T21:15:30.088Z,3.85
2023-03-08T21:17:56.572Z,4.47
2023-03-08T21:20:23.157Z,2.65
2023-03-08T21:22:49.645Z,1.33
2023-03-08T21:25:16.327Z,3.63
2023-03-08T21:27:43.153Z,2.70
2023-03-08T21:30:10.934Z,5.25
2023-03-08T21:32:37.653Z,2.88
2023-03-08T21:35:04.507Z,1.50
2023-03-08T21:37:31.066Z,3.20
2023-03-08T21:39:57.611Z,2.03
2023-03-08T21:42:24.574Z,2.03
2023-03-08T21:44:51.276Z,3.40
2023-03-08T21:47:17.816Z,2.78
2023-03-08T21:49:44.245Z,2.30
2023-03-08T21:52:10.778Z,4.47
2023-03-08T21:54:37.260Z,2.70
2023-03-08T21:57:04.139Z,4.03
2023-03-08T21:59:30.752Z,4.25
2023-03-08T22:01:58.710Z,3.25
2023-03-08T22:04:26.630Z,3.53
2023-03-08T22:06:55.444Z,2.45
2023-03-08T22:09:23.274Z,4.93
2023-03-08T22:11:49.801Z,1.75
2023-03-08T22:14:16.287Z,5.78
2023-03-08T22:16:42.777Z,3.63
2023-03-08T22:19:10.697Z,3.20
2023-03-08T22:21:37.222Z,2.10
2023-03-08T22:24:04.954Z,0.95
2023-03-08T22:26:32.408Z,0.50
2023-03-08T22:28:59.525Z,1.00
2023-03-08T22:31:28.538Z,0.68
2023-03-08T22:33:55.501Z,0.63
2023-03-08T22:36:22.591Z,0.60
2023-03-08T22:38:49.400Z,1.25
2023-03-08T22:41:20.101Z,0.82
2023-03-08T22:43:47.902Z,1.92
2023-03-08T22:46:20.527Z,0.82
2023-03-08T22:48:48.117Z,1.13
2023-03-08T22:51:15.929Z,0.75
2023-03-08T22:53:42.730Z,1.45
2023-03-08T22:56:29.473Z,1.30
2023-03-08T22:58:56.937Z,2.63
2023-03-08T23:01:24.792Z,2.25
2023-03-08T23:03:55.047Z,4.10
2023-03-08T23:06:21.770Z,1.77
2023-03-08T23:08:48.345Z,2.28
2023-03-08T23:11:14.998Z,2.17
2023-03-08T23:13:41.874Z,2.20
2023-03-08T23:16:11.251Z,3.58
2023-03-08T23:18:37.967Z,5.35
2023-03-08T23:21:06.784Z,3.47
2023-03-08T23:23:33.684Z,3.03
2023-03-08T23:26:02.494Z,3.25
2023-03-08T23:28:28.991Z,7.45
2023-03-08T23:30:55.494Z,5.65
2023-03-08T23:33:22.075Z,4.72
2023-03-08T23:35:49.432Z,4.43
2023-03-08T23:38:16.040Z,3.40
2023-03-08T23:40:43.081Z,4.13
2023-03-08T23:43:09.559Z,5.13
2023-03-08T23:45:39.082Z,2.75
2023-03-08T23:48:05.843Z,3.80
2023-03-08T23:50:32.328Z,3.63
2023-03-08T23:52:59.004Z,3.03
2023-03-08T23:55:25.526Z,1.73
2023-03-08T23:57:52.015Z,3.40
